Aérodrome :
LOGIN :

S'inscrire | Disclaimer

   EN    FR    IT 

 










Légende :    VFR   VFR Marginal   IFR   IFR Intensif   IFR Très Intensif
Visi : 
Plafond : 
>= 8 km
>= 3000ft
5 à 8 km
1000 à 3000 ft
1500m à 5 km
500 à 1000 ft
800 à 1500m
200 à 500 ft
< 800m
< 200 ft
Symboles :   Orages  Brouillard  Fortes neiges  Fortes précipitations  Vent > 20 kt
SIGMETs :   Divers  Orages  Givrage  Turbulence  Onde Orograph.  Cendres Volcan.






- Altitude de l'aérodrome : 614 ft
- Code IATA : CRL


EBCI - Charleroi

DERNIER METAR :
  • 090920Z 20012KT 9999 -RA SCT005 BKN007 BKN012 01/00 Q1004 NOSIG

METARs EXPIRÉS :
  • 090850Z 21013KT 9000 -RASN SCT004 BKN007 BKN011 01/00 Q1004 TEMPO 3000 -SNRA
  • 090820Z 21013KT 4500 -SNRA BKN005 BKN007 01/M00 Q1004 TEMPO 3000 -SNRA
  • 090750Z 21011KT 5000 -RASN BKN006 BKN009 01/00 Q1004 TEMPO 3000 -SNRA BKN004
  • 090720Z 21012KT 7000 -RASN BKN007 BKN010 02/01 Q1004 TEMPO 4000 -SNRA BKN005
  • 090650Z 21009KT 9000 -RASN BKN008 BKN015 01/00 Q1004 TEMPO 4000 -SNRA BKN005

TAF TAF EBCI
Valide du 09 à 06h jusqu'au 10 à 12h UTC


090510Z 0906/1012 20009KT 9999 SCT008 BKN030
BECMG 0906/0908 SCT004 BKN008
PROB40
TEMPO 0907/0915 3500 -RADZ RA BKN004
PROB30
TEMPO 0906/0910 2500 -RASN BKN003
BECMG 0915/0918 SCT008 BKN014
BECMG 0923/1002 BKN008
PROB40
TEMPO 1002/1012 4000 RA
BECMG 1009/1012 28016G26KT



MET'MAP, la Météo Aéronautique d'un coup d'oeil ! - Copyright ORBIFLY Décembre 2007 - Disclaimer

ORBIFLY MET'MAP TEAM :

Programmation & Développement : Alexandra Zaïnal
Sur une idée originale de : Baudouin d'Aumeries
Assistance à la programmation : Marc-Olivier Méhu
Soutien technique & logistique : Manuel Goepfert

Contact : metmap@orbifly.com




SOURCES & CREDITS :

   NOAA